Los Posos, Valles Caldera, New Mexico Weather observations

Data are for 10 minute period ending at time listed.
 Day   Time   Solar   Ave.   Ave.  Ave.  Vector  Max.   Baro.   Total    
  of    of     Rad.   Air    Rel.  Wind   Wind   Wind  Press.  Precip.   
Year   Day            Temp.  Hum.  Speed  Dir.   Gust                    
2016   (MST)  Kw/m2    F      %     mph   deg.    mph    mb.     in.     
-------------------------------------------------------------------------
 145    1:30   0.00   36.1    53    3.3   229     4.8   99999.0    0.00 
 145    1:40   0.00   36.1    52    3.2   221     4.8   99999.0    0.00 
 145    1:50   0.00   37.0    49    2.1   245     4.8   99999.0    0.00 
 145    2:00   0.00   35.4    54    1.4   289     4.8   99999.0    0.00 
 145    2:10   0.00   32.7    60    0.3   309     2.4   99999.0    0.00 
 145    2:20   0.00   31.5    65    0.8   240     2.4   99999.0    0.00 
 145    2:30   0.00   31.5    66    2.0   238     3.0   99999.0    0.00 
 145    2:40   0.00   30.3    69    1.0   279     2.4   99999.0    0.00 
 145    2:50   0.00   29.5    71    0.6   282     2.4   99999.0    0.00 
 145    3:00   0.00   29.2    71    1.6   254     3.6   99999.0    0.00 
 145    3:10   0.00   28.6    73    1.9   241     3.6   99999.0    0.00 
 145    3:20   0.00   28.5    73    2.1   240     4.2   99999.0    0.00 
 145    3:30   0.00   28.1    74    1.9   235     3.6   99999.0    0.00 
 145    3:40   0.00   28.5    71    1.0   232     2.4   99999.0    0.00 
 145    3:50   0.00   27.9    72    0.0     0     0.0   99999.0    0.00 
 145    4:00   0.00   27.6    74    1.8   261     3.0   99999.0    0.00 
 145    4:10   0.00   27.3    75    2.3   241     3.6   99999.0    0.00 
 145    4:20   0.00   26.9    77    0.9   247     2.4   99999.0    0.00 
 145    4:30   0.00   26.9    77    0.6   254     3.0   99999.0    0.00 
 145    4:40   0.00   26.5    78    0.9   256     3.0   99999.0    0.00 
 145    4:50   0.00   26.6    77    0.4   290     2.4   99999.0    0.00 
 145    5:00   0.01   26.5    77    1.0   284     2.4   99999.0    0.00 
 145    5:10   0.01   26.6    76    0.0     0     0.0   99999.0    0.00 
 145    5:20   0.01   26.9    76    0.1   247     1.8   99999.0    0.00 
 145    5:30   0.06   28.0    75    0.6   272     2.4   99999.0    0.00 
 145    5:40   0.10   30.5    71    0.4   240     2.4   99999.0    0.00 
 145    5:50   0.14   33.5    68    0.0     0     0.0   99999.0    0.00 
 145    6:00   0.17   36.8    67    0.4    23     2.4   99999.0    0.00 
 145    6:10   0.21   39.6    61    0.0    32     1.2   99999.0    0.00 
 145    6:20   0.24   43.2    53    0.0     0     0.0   99999.0    0.00 
 145    6:30   0.27   46.8    50    0.4    37     2.4   99999.0    0.00 
 145    6:40   0.31   47.7    50    1.0    62     4.2   99999.0    0.00 
 145    6:50   0.34   50.4    44    1.5     1     3.6   99999.0    0.00 
 145    7:00   0.38   52.5    37    2.9    26     4.8   99999.0    0.00 
 145    7:10   0.42   54.2    32    3.8    10     6.0   99999.0    0.00 
 145    7:20   0.45   55.3    30    5.4   357     8.4   99999.0    0.00 
 145    7:30   0.49   55.5    30    5.6   330     9.6   99999.0    0.00 
 145    7:40   0.52   53.8    31    5.1   316     9.0   99999.0    0.00 
 145    7:50   0.55   55.0    30    5.0   318     9.0   99999.0    0.00 
 145    8:00   0.59   54.3    30    3.5   292     9.0   99999.0    0.00 
 145    8:10   0.62   56.3    28    3.0     9     7.8   99999.0    0.00 
 145    8:20   0.65   56.8    29    4.0   259    10.8   99999.0    0.00 
 145    8:30   0.68   55.4    28    6.2   182    13.1   99999.0    0.00 
 145    8:40   0.71   55.7    28    6.3   188    13.1   99999.0    0.00 
 145    8:50   0.74   55.7    27    6.7   193    13.7   99999.0    0.00 
 145    9:00   0.77   56.2    26    6.9   181    11.9   99999.0    0.00 
 145    9:10   0.80   56.7    26    6.8   192    14.3   99999.0    0.00 
 145    9:20   0.82   56.8    25    5.8   176    13.1   99999.0    0.00 
 145    9:30   0.85   56.9    24    7.4   192    14.9   99999.0    0.00 
 145    9:40   0.87   56.7    24    6.6   176    13.7   99999.0    0.00 
 145    9:50   0.89   57.1    24    5.1   200    10.2   99999.0    0.00 
 145   10:00   0.91   57.5    23    6.7   213    13.1   99999.0    0.00 
 145   10:10   0.93   57.4    23    8.1   189    14.3   99999.0    0.00 
 145   10:20   0.95   57.6    22    7.4   189    16.1   99999.0    0.00 
 145   10:30   0.96   58.3    23    6.4   203    11.3   99999.0    0.00 
 145   10:40   0.98   58.2    21    8.7   190    16.7   99999.0    0.00 
 145   10:50   0.99   58.9    23    6.4   251    10.8   99999.0    0.00 
 145   11:00   1.00   59.1    24    5.4   208    11.9   99999.0    0.00 
 145   11:10   1.01   58.9    22    7.7   181    14.9   99999.0    0.00 
 145   11:20   1.02   58.0    23    7.8   185    16.7   99999.0    0.00 
 145   11:30   1.02   58.5    24    8.8   226    14.9   99999.0    0.00 
 145   11:40   1.03   58.5    23    6.2   188    15.5   99999.0    0.00 
 145   11:50   1.04   58.9    23    8.4   187    16.1   99999.0    0.00 
 145   12:00   1.04   59.0    22    8.6   180    18.5   99999.0    0.00 
 145   12:10   1.04   59.8    22    7.4   222    25.0   99999.0    0.00 
 145   12:20   1.04   60.6    22    6.3   204    14.3   99999.0    0.00 
 145   12:30   1.04   60.2    21    7.5   182    16.7   99999.0    0.00 
 145   12:40   1.04   59.6    21    9.8   180    17.9   99999.0    0.00 
 145   12:50   1.03   59.8    21    8.2   198    17.9   99999.0    0.00 
 145   13:00   1.03   60.2    21    8.2   203    16.1   99999.0    0.00 
 145   13:10   1.02   60.9    20    7.8   179    16.7   99999.0    0.00 
 145   13:20   1.00   60.1    21    6.2   168    17.9   99999.0    0.00 
 145   13:30   1.03   61.3    21    9.1   204    16.7   99999.0    0.00 
 145   13:40   1.01   61.3    20    8.9   196    17.9   99999.0    0.00 
 145   13:50   0.98   61.2    20    9.3   186    18.5   99999.0    0.00 
 145   14:00   0.97   60.5    20    9.5   205    21.5   99999.0    0.00 
 145   14:10   0.97   62.6    21    6.1   218    16.1   99999.0    0.00 
 145   14:20   0.96   62.4    20    8.6   190    16.7   99999.0    0.00 
 145   14:30   0.95   62.8    19    8.2   209    18.5   99999.0    0.00 
 145   14:40   0.79   62.4    19    6.9   177    13.7   99999.0    0.00 
 145   14:50   0.43   61.3    19    7.8   192    18.5   99999.0    0.00 
 145   15:00   0.86   61.6    20    9.7   218    18.5   99999.0    0.00 
 145   15:10   0.87   62.7    19    9.8   216    20.3   99999.0    0.00 
 145   15:20   0.60   61.7    18    9.1   192    17.9   99999.0    0.00 
 145   15:30   0.76   62.1    18    9.3   210    16.7   99999.0    0.00 
 145   15:40   0.50   62.8    16    7.9   212    18.5   99999.0    0.00 
 145   15:50   0.43   61.8    15   10.2   212    20.3   99999.0    0.00 
 145   16:00   0.64   62.2    16    7.9   240    17.9   99999.0    0.00 
 145   16:10   0.34   62.9    16    5.6   234    13.1   99999.0    0.00 
 145   16:20   0.19   60.7    16    5.6   236    13.1   99999.0    0.00 
 145   16:30   0.20   60.2    16    4.7   206    11.9   99999.0    0.00 
 145   16:40   0.28   61.2    15    3.2   215     9.6   99999.0    0.00 
 145   16:50   0.18   60.6    15    6.9   229    15.5   99999.0    0.00 
 145   17:00   0.20   60.5    16    4.8   220    10.8   99999.0    0.00 
 145   17:10   0.21   60.5    16    6.4   250    13.7   99999.0    0.00 
 145   17:20   0.34   61.2    15    7.7   261    14.9   99999.0    0.00 
 145   17:30   0.29   61.2    15    7.5   235    16.1   99999.0    0.00 
 145   17:40   0.17   61.4    16    6.2   203    15.5   99999.0    0.00 
 145   17:50   0.11   59.7    17    6.3   213    14.9   99999.0    0.00 
 145   18:00   0.07   58.7    18    8.6   200    14.9   99999.0    0.00 
 145   18:10   0.14   58.8    17    7.1   212    13.7   99999.0    0.00 
 145   18:20   0.06   58.6    17    8.7   198    18.5   99999.0    0.00 
 145   18:30   0.14   59.1    16    6.9   208    21.5   99999.0    0.00 
 145   18:40   0.11   59.5    15    7.6   213    17.9   99999.0    0.00 
 145   18:50   0.07   59.4    15    4.7   224    12.5   99999.0    0.00 
 145   19:00   0.03   58.2    15    7.5   226    14.3   99999.0    0.00 
 145   19:10   0.01   57.2    16    7.4   244    14.9   99999.0    0.00 
 145   19:20   0.00   56.3    16    4.9   235    10.8   99999.0    0.00 
 145   19:30   0.00   54.9    17    2.5   259     7.8   99999.0    0.00 
 145   19:40   0.00   53.9    18    2.5   235     6.0   99999.0    0.00 
 145   19:50   0.00   52.5    20    1.6   223     5.4   99999.0    0.00 
 145   20:00   0.00   49.0    25    1.3   222     3.0   99999.0    0.00 
 145   20:10   0.00   48.6    22    3.0   223     7.8   99999.0    0.00 
 145   20:20   0.00   49.0    22    1.6   214     3.6   99999.0    0.00 
 145   20:30   0.00   47.8    23    1.7   227     3.6   99999.0    0.00 
 145   20:40   0.00   45.3    28    2.0   224     4.8   99999.0    0.00 
 145   20:50   0.00   45.5    26    2.9   225     5.4   99999.0    0.00 
 145   21:00   0.00   43.5    28    1.5   220     4.8   99999.0    0.00 
 145   21:10   0.00   42.0    31    1.9   245     4.2   99999.0    0.00 
 145   21:20   0.00   40.7    33    2.3   226     4.8   99999.0    0.00 
 145   21:30   0.00   41.3    30    2.9   218     6.0   99999.0    0.00 
 145   21:40   0.00   43.0    28    3.9   214     8.4   99999.0    0.00 
 145   21:50   0.00   44.8    25    3.6   220     6.0   99999.0    0.00 
 145   22:00   0.00   44.5    25    3.2   210     6.0   99999.0    0.00 
 145   22:10   0.00   43.6    26    3.0   218     6.6   99999.0    0.00 
 145   22:20   0.00   45.6    23    3.7   246     9.0   99999.0    0.00 
 145   22:30   0.00   45.4    23    4.1   235     8.4   99999.0    0.00 
 145   22:40   0.00   45.1    23    3.7   232     7.2   99999.0    0.00 
 145   22:50   0.00   42.8    26    3.2   206     6.6   99999.0    0.00 
 145   23:00   0.00   43.3    25    3.0   236     6.6   99999.0    0.00 
 145   23:10   0.00   43.4    25    3.0   239     7.2   99999.0    0.00 
 145   23:20   0.00   43.0    24    3.8   254     8.4   99999.0    0.00 
 145   23:30   0.00   41.8    29    2.5   217     6.0   99999.0    0.00 
 145   23:40   0.00   38.4    32    3.5   217     6.6   99999.0    0.00 
 145   23:50   0.00   40.9    26    3.3   237     6.6   99999.0    0.00 
 146    0:00   0.00   43.0    23    2.8   245     7.8   99999.0    0.00 
 146    0:10   0.00   41.6    25    1.0   215     3.6   99999.0    0.00 
 146    0:20   0.00   43.2    23    4.5   306     9.0   99999.0    0.00 
 146    0:30   0.00   43.9    22    2.6   266     6.6   99999.0    0.00 
 146    0:40   0.00   43.0    23    2.7   235     5.4   99999.0    0.00 
 146    0:50   0.00   43.7    22    3.8   333     7.2   99999.0    0.00 
 146    1:00   0.00   44.1    22    4.9   305     9.0   99999.0    0.00 
 146    1:10   0.00   43.0    24    4.0   295    11.3   99999.0    0.00 
 146    1:20   0.00   39.1    29    2.1   206     5.4   99999.0    0.00 

Return to Los Posos, Valles Caldera graphs page.


Western Regional Climate Center,wrcc@dri.edu